Time;durP1;ratioP1;P1;durP2;ratioP2;P2;SDS_P1;SDS_P2;PMS_P1;PMS_P2;Temp;Humidity;BMP_temperature;BMP_pressure;BME280_temperature;BME280_humidity;BME280_pressure;Samples;Min_cycle;Max_cycle;Signal;HPM_P1;HPM_P2
2023/01/10 00:00:46;;;;;;;;;;;5.20;99.90;;;;;;5051982;28;19928;-67
2023/01/10 00:03:12;;;;;;;;;;;5.10;99.90;;;;;;5042369;28;20011;-69
2023/01/10 00:05:38;;;;;;;;;;;5.10;99.90;;;;;;5052180;28;20393;-67
2023/01/10 00:08:04;;;;;;;;;;;5.10;99.90;;;;;;5052731;28;19956;-67
2023/01/10 00:10:31;;;;;;;;;;;5.00;99.90;;;;;;5053446;28;19921;-68
2023/01/10 00:15:40;;;;;;;;;;;5.00;99.90;;;;;;5042050;28;19927;-67
2023/01/10 00:18:06;;;;;;;;;;;5.00;99.90;;;;;;5051700;28;20119;-67
2023/01/10 00:20:32;;;;;;;;;;;5.00;99.90;;;;;;5052600;28;19975;-67
2023/01/10 00:22:58;;;;;;;;;;;4.90;99.90;;;;;;5050776;28;20015;-66
2023/01/10 00:25:24;;;;;;;;;;;4.90;99.90;;;;;;5050874;28;19933;-66
2023/01/10 00:27:56;;;;;;;;;;;4.90;99.90;;;;;;5052604;28;19942;-67
2023/01/10 00:30:22;;;;;;;;;;;4.90;99.90;;;;;;5051961;28;19972;-67
2023/01/10 00:32:48;;;;;;;;;;;4.90;99.90;;;;;;5052627;28;20021;-77
2023/01/10 00:35:13;;;;;;;;;;;4.90;99.90;;;;;;5050836;28;19966;-67
2023/01/10 00:37:39;;;;;;;;;;;4.90;99.90;;;;;;5051131;28;19928;-67
2023/01/10 00:40:08;;;;;;;;;;;4.90;99.90;;;;;;5038639;28;19947;-74
2023/01/10 00:45:21;;;;;;;;;;;4.80;99.90;;;;;;5040662;28;20313;-66
2023/01/10 00:47:47;;;;;;;;;;;4.90;99.90;;;;;;5041444;28;20297;-66
2023/01/10 00:50:12;;;;;;;;;;;4.80;99.90;;;;;;5038390;28;20004;-67
2023/01/10 00:52:38;;;;;;;;;;;4.80;99.90;;;;;;5048767;28;19927;-66
2023/01/10 00:55:04;;;;;;;;;;;4.80;99.90;;;;;;5042993;28;19947;-67
2023/01/10 00:57:29;;;;;;;;;;;4.80;99.90;;;;;;5044142;28;19932;-67
2023/01/10 00:59:55;;;;;;;;;;;4.80;99.90;;;;;;5038951;28;20011;-67
2023/01/10 01:02:21;;;;;;;;;;;4.80;99.90;;;;;;5046469;28;19970;-67
2023/01/10 01:04:46;;;;;;;;;;;4.90;99.90;;;;;;5043867;28;19929;-68
2023/01/10 01:07:12;;;;;;;;;;;4.90;99.90;;;;;;5044493;28;19929;-67
2023/01/10 01:10:25;;;;;;;;;;;5.00;99.90;;;;;;5052026;28;20388;-68
2023/01/10 01:12:23;;;;;;;;;;;5.00;99.90;;;;;;5051652;28;19940;-68
2023/01/10 01:14:48;;;;;;;;;;;5.00;99.90;;;;;;5052255;28;19924;-69
2023/01/10 01:17:14;;;;;;;;;;;5.10;99.90;;;;;;5051120;28;19952;-67
2023/01/10 01:19:40;;;;;;;;;;;5.10;99.90;;;;;;5052528;28;19957;-67
2023/01/10 01:22:05;;;;;;;;;;;5.20;99.90;;;;;;5035775;28;19924;-67
2023/01/10 01:24:31;;;;;;;;;;;5.30;99.90;;;;;;5052209;28;19920;-67
2023/01/10 01:26:56;;;;;;;;;;;5.30;99.90;;;;;;5034336;28;20429;-80
2023/01/10 01:29:23;;;;;;;;;;;5.40;99.90;;;;;;5052546;28;19925;-67
2023/01/10 01:31:49;;;;;;;;;;;5.30;99.90;;;;;;5038555;28;20317;-67
2023/01/10 01:34:14;;;;;;;;;;;5.40;99.90;;;;;;5083271;28;19931;-67
2023/01/10 01:36:40;;;;;;;;;;;5.40;99.90;;;;;;5048389;28;19924;-67
2023/01/10 01:39:06;;;;;;;;;;;5.40;99.90;;;;;;5049977;28;20017;-69
2023/01/10 01:44:17;;;;;;;;;;;5.40;99.90;;;;;;5048400;28;19935;-67
2023/01/10 01:47:03;;;;;;;;;;;5.30;99.90;;;;;;5049655;28;19924;-69
2023/01/10 01:49:30;;;;;;;;;;;5.30;99.90;;;;;;5049277;28;19921;-67
2023/01/10 01:51:58;;;;;;;;;;;5.30;99.90;;;;;;5051698;28;19932;-67
2023/01/10 01:54:24;;;;;;;;;;;5.30;99.90;;;;;;5049155;28;19932;-67
2023/01/10 01:56:53;;;;;;;;;;;5.30;99.90;;;;;;5050636;28;19999;-69
2023/01/10 01:59:31;;;;;;;;;;;5.30;99.90;;;;;;5050087;28;20031;-68
2023/01/10 02:02:00;;;;;;;;;;;5.30;99.90;;;;;;5044961;28;19927;-68
2023/01/10 02:04:28;;;;;;;;;;;5.30;99.90;;;;;;5048872;28;20374;-67
2023/01/10 02:06:54;;;;;;;;;;;5.20;99.90;;;;;;5044071;28;19974;-67
2023/01/10 02:09:20;;;;;;;;;;;5.30;99.90;;;;;;5050136;28;19921;-69
2023/01/10 02:11:45;;;;;;;;;;;5.20;99.90;;;;;;5048456;28;19920;-68
2023/01/10 02:14:12;;;;;;;;;;;5.30;99.90;;;;;;5051066;28;19921;-67
2023/01/10 02:16:37;;;;;;;;;;;5.30;99.90;;;;;;5049432;28;19924;-67
2023/01/10 02:19:04;;;;;;;;;;;5.30;99.90;;;;;;5045372;28;19932;-81
2023/01/10 02:21:30;;;;;;;;;;;5.30;99.90;;;;;;5047159;28;19920;-67
2023/01/10 02:24:14;;;;;;;;;;;5.30;99.90;;;;;;5048950;28;20015;-67
2023/01/10 02:26:59;;;;;;;;;;;5.30;99.90;;;;;;5050024;28;19972;-67
2023/01/10 02:29:40;;;;;;;;;;;5.30;99.90;;;;;;5073048;28;20003;-67
2023/01/10 02:32:19;;;;;;;;;;;5.30;99.90;;;;;;5051129;28;20031;-79
2023/01/10 02:34:44;;;;;;;;;;;5.30;99.90;;;;;;5051705;28;19920;-68
2023/01/10 02:37:24;;;;;;;;;;;5.30;99.90;;;;;;5047805;28;19921;-68
2023/01/10 02:39:50;;;;;;;;;;;5.30;99.90;;;;;;5041993;28;19972;-68
2023/01/10 02:42:30;;;;;;;;;;;5.40;99.90;;;;;;5047124;28;19960;-74
2023/01/10 02:45:14;;;;;;;;;;;5.30;99.90;;;;;;5049116;28;19920;-68
2023/01/10 02:47:40;;;;;;;;;;;5.20;99.90;;;;;;5046619;28;19939;-67
2023/01/10 02:50:32;;;;;;;;;;;5.20;99.90;;;;;;5039621;28;19941;-80
2023/01/10 02:53:03;;;;;;;;;;;5.20;99.90;;;;;;5016251;28;20294;-67
2023/01/10 02:56:07;;;;;;;;;;;5.30;99.90;;;;;;5045666;28;20330;-72
2023/01/10 02:58:51;;;;;;;;;;;5.30;99.90;;;;;;5014163;28;19951;-67
2023/01/10 03:01:35;;;;;;;;;;;5.30;99.90;;;;;;5027427;28;19925;-67
2023/01/10 03:04:23;;;;;;;;;;;5.30;99.90;;;;;;5029628;28;20019;-69
2023/01/10 03:06:55;;;;;;;;;;;5.40;99.90;;;;;;5035969;28;19928;-67
2023/01/10 03:09:24;;;;;;;;;;;5.40;99.90;;;;;;5045270;28;19931;-67
2023/01/10 03:11:52;;;;;;;;;;;5.40;99.90;;;;;;5040181;28;19921;-69
2023/01/10 03:14:21;;;;;;;;;;;5.40;99.90;;;;;;5037350;28;20313;-67
2023/01/10 03:16:50;;;;;;;;;;;5.40;99.90;;;;;;5053656;28;19921;-68
2023/01/10 03:19:18;;;;;;;;;;;5.40;99.90;;;;;;5053374;28;20385;-67
2023/01/10 03:21:46;;;;;;;;;;;5.30;99.90;;;;;;5036772;28;19921;-67
2023/01/10 03:24:18;;;;;;;;;;;5.20;99.90;;;;;;5054325;28;19920;-79
2023/01/10 03:26:47;;;;;;;;;;;5.20;99.90;;;;;;5053296;28;19942;-67
2023/01/10 03:29:15;;;;;;;;;;;5.20;99.90;;;;;;5053964;28;20344;-79
2023/01/10 03:31:44;;;;;;;;;;;5.20;99.90;;;;;;5053265;28;19921;-70
2023/01/10 03:34:09;;;;;;;;;;;5.30;99.90;;;;;;5054001;28;19927;-69
2023/01/10 03:36:47;;;;;;;;;;;5.30;99.90;;;;;;5049566;28;20003;-68
2023/01/10 03:39:28;;;;;;;;;;;5.30;99.90;;;;;;5072326;28;20328;-78
2023/01/10 03:41:56;;;;;;;;;;;5.30;99.90;;;;;;5053879;28;20339;-67
2023/01/10 03:44:45;;;;;;;;;;;5.40;99.90;;;;;;5053304;28;19921;-66
2023/01/10 03:47:19;;;;;;;;;;;5.40;99.90;;;;;;5052142;28;19921;-67
2023/01/10 03:49:47;;;;;;;;;;;5.40;99.90;;;;;;5045359;28;19920;-67
2023/01/10 03:52:14;;;;;;;;;;;5.50;99.90;;;;;;5053601;28;19925;-66
2023/01/10 03:54:43;;;;;;;;;;;5.60;99.90;;;;;;5053112;28;19929;-67
2023/01/10 03:57:13;;;;;;;;;;;5.50;99.90;;;;;;5052477;28;19927;-67
2023/01/10 03:59:39;;;;;;;;;;;5.60;99.90;;;;;;5038709;28;19925;-68
2023/01/10 04:02:05;;;;;;;;;;;5.60;99.90;;;;;;5053103;28;19928;-71
2023/01/10 04:04:31;;;;;;;;;;;5.60;99.90;;;;;;5052969;28;19921;-68
2023/01/10 04:06:57;;;;;;;;;;;5.60;99.90;;;;;;5053489;28;19932;-67
2023/01/10 04:09:22;;;;;;;;;;;5.60;99.90;;;;;;5051278;28;19932;-67
2023/01/10 04:11:48;;;;;;;;;;;5.50;99.90;;;;;;5068749;28;19920;-67
2023/01/10 04:14:13;;;;;;;;;;;5.50;99.90;;;;;;5052306;28;20349;-67
2023/01/10 04:16:39;;;;;;;;;;;5.50;99.90;;;;;;5039591;28;19995;-67
2023/01/10 04:19:05;;;;;;;;;;;5.50;99.90;;;;;;5053081;28;19972;-67
2023/01/10 04:21:30;;;;;;;;;;;5.40;99.90;;;;;;5051529;28;19924;-67
2023/01/10 04:23:56;;;;;;;;;;;5.40;99.90;;;;;;5051755;28;19925;-67
2023/01/10 04:26:21;;;;;;;;;;;5.40;99.90;;;;;;5051211;28;20011;-71
2023/01/10 04:28:47;;;;;;;;;;;5.40;99.90;;;;;;5034777;28;19966;-67
2023/01/10 04:31:12;;;;;;;;;;;5.30;99.90;;;;;;5052992;28;20019;-66
2023/01/10 04:33:40;;;;;;;;;;;5.40;99.90;;;;;;5052052;28;19924;-68
2023/01/10 04:36:05;;;;;;;;;;;5.40;99.90;;;;;;5050761;28;19929;-66
2023/01/10 04:38:31;;;;;;;;;;;5.30;99.90;;;;;;5052155;28;19921;-68
2023/01/10 04:40:57;;;;;;;;;;;5.40;99.90;;;;;;5051282;28;19944;-66
2023/01/10 04:43:23;;;;;;;;;;;5.40;99.90;;;;;;5052580;28;20388;-76
2023/01/10 04:45:48;;;;;;;;;;;5.40;99.90;;;;;;5052553;28;19925;-66
2023/01/10 04:48:14;;;;;;;;;;;5.40;99.90;;;;;;5050927;28;19921;-66
2023/01/10 04:50:40;;;;;;;;;;;5.50;99.90;;;;;;5050933;28;19921;-64
2023/01/10 04:53:06;;;;;;;;;;;5.40;99.90;;;;;;5053459;28;19921;-63
2023/01/10 04:55:32;;;;;;;;;;;5.50;99.90;;;;;;5052925;28;19928;-64
2023/01/10 04:57:58;;;;;;;;;;;5.50;99.90;;;;;;5053134;28;19920;-63
2023/01/10 05:00:23;;;;;;;;;;;5.50;99.90;;;;;;5052737;28;20301;-65
2023/01/10 05:02:53;;;;;;;;;;;5.50;99.90;;;;;;5052802;28;19921;-63
2023/01/10 05:05:19;;;;;;;;;;;5.60;99.90;;;;;;5052236;28;20262;-63
2023/01/10 05:07:45;;;;;;;;;;;5.60;99.90;;;;;;5052644;28;19917;-64
2023/01/10 05:10:10;;;;;;;;;;;5.60;99.90;;;;;;5051823;28;19943;-64
2023/01/10 05:12:36;;;;;;;;;;;5.50;99.90;;;;;;5051588;28;20282;-64
2023/01/10 05:15:01;;;;;;;;;;;5.50;99.90;;;;;;5035370;28;19928;-64
2023/01/10 05:17:27;;;;;;;;;;;5.50;99.90;;;;;;5051363;28;19951;-64
2023/01/10 05:19:53;;;;;;;;;;;5.40;99.90;;;;;;5053009;28;19924;-64
2023/01/10 05:22:18;;;;;;;;;;;5.40;99.90;;;;;;5052707;28;19920;-63
2023/01/10 05:24:44;;;;;;;;;;;5.40;99.90;;;;;;5052480;28;20011;-64
2023/01/10 05:27:09;;;;;;;;;;;5.40;99.90;;;;;;5052140;28;19943;-64
2023/01/10 05:29:35;;;;;;;;;;;5.50;99.90;;;;;;5052341;28;19927;-63
2023/01/10 05:32:00;;;;;;;;;;;5.90;99.90;;;;;;5051484;28;20311;-63
2023/01/10 05:34:26;;;;;;;;;;;5.60;99.90;;;;;;5052022;28;19982;-65
2023/01/10 05:36:51;;;;;;;;;;;5.50;99.90;;;;;;5051058;28;20423;-64
2023/01/10 05:39:17;;;;;;;;;;;5.50;99.90;;;;;;5052729;28;19921;-64
2023/01/10 05:41:43;;;;;;;;;;;5.60;99.90;;;;;;5052093;28;19947;-63
2023/01/10 05:44:08;;;;;;;;;;;5.70;99.90;;;;;;5051003;28;19927;-64
2023/01/10 05:46:34;;;;;;;;;;;5.60;99.90;;;;;;5051831;28;19921;-64
2023/01/10 05:48:59;;;;;;;;;;;5.60;99.90;;;;;;5052222;28;19927;-64
2023/01/10 05:51:25;;;;;;;;;;;5.60;99.90;;;;;;5052172;28;19921;-64
2023/01/10 05:53:51;;;;;;;;;;;5.60;99.90;;;;;;5051781;28;19917;-64
2023/01/10 05:56:16;;;;;;;;;;;5.60;99.90;;;;;;5051393;28;19921;-64
2023/01/10 05:58:42;;;;;;;;;;;5.60;99.90;;;;;;5050113;28;19924;-63
2023/01/10 06:01:08;;;;;;;;;;;5.60;99.90;;;;;;5051576;28;19956;-64
2023/01/10 06:03:34;;;;;;;;;;;5.60;99.90;;;;;;5051079;28;19921;-65
2023/01/10 06:06:02;;;;;;;;;;;5.60;99.90;;;;;;5051163;28;19928;-63
2023/01/10 06:08:27;;;;;;;;;;;5.60;99.90;;;;;;5052029;28;19920;-64
2023/01/10 06:10:53;;;;;;;;;;;5.60;99.90;;;;;;5051156;28;20570;-63
2023/01/10 06:13:19;;;;;;;;;;;5.60;99.90;;;;;;5050902;28;19974;-65
2023/01/10 06:15:44;;;;;;;;;;;5.50;99.90;;;;;;5051489;28;19921;-63
2023/01/10 06:18:10;;;;;;;;;;;5.50;99.90;;;;;;5051833;28;20341;-63
2023/01/10 06:20:36;;;;;;;;;;;5.50;99.90;;;;;;5050182;28;19931;-65
2023/01/10 06:23:03;;;;;;;;;;;5.50;99.90;;;;;;5050101;28;20021;-64
2023/01/10 06:25:29;;;;;;;;;;;5.50;99.90;;;;;;5051664;28;19921;-64
2023/01/10 06:27:55;;;;;;;;;;;5.40;99.90;;;;;;5050285;28;20561;-64
2023/01/10 06:30:21;;;;;;;;;;;5.40;99.90;;;;;;5051824;28;19920;-64
2023/01/10 06:32:46;;;;;;;;;;;5.40;99.90;;;;;;5050688;28;20027;-63
2023/01/10 06:35:12;;;;;;;;;;;5.40;99.90;;;;;;5050972;28;19943;-63
2023/01/10 06:37:37;;;;;;;;;;;5.40;99.90;;;;;;5050187;28;19921;-65
2023/01/10 06:40:03;;;;;;;;;;;5.30;99.90;;;;;;5054414;28;19931;-64
2023/01/10 06:42:29;;;;;;;;;;;5.40;99.90;;;;;;5054911;28;19921;-63
2023/01/10 06:44:55;;;;;;;;;;;5.40;99.90;;;;;;5055185;28;19942;-63
2023/01/10 06:47:20;;;;;;;;;;;5.30;99.90;;;;;;5055464;28;19966;-64
2023/01/10 06:49:46;;;;;;;;;;;5.20;99.90;;;;;;5055192;28;19982;-62
2023/01/10 06:52:11;;;;;;;;;;;5.20;99.90;;;;;;5055380;28;19920;-63
2023/01/10 06:54:37;;;;;;;;;;;5.20;99.90;;;;;;5055572;28;19920;-63
2023/01/10 06:57:03;;;;;;;;;;;5.20;99.90;;;;;;5054029;28;19925;-63
2023/01/10 06:59:29;;;;;;;;;;;5.10;99.90;;;;;;5054981;28;20019;-64
2023/01/10 07:01:54;;;;;;;;;;;5.10;99.90;;;;;;5052671;28;20026;-63
2023/01/10 07:04:20;;;;;;;;;;;5.10;99.90;;;;;;5054823;28;19928;-64
2023/01/10 07:06:45;;;;;;;;;;;5.00;99.90;;;;;;5055051;28;19943;-64
2023/01/10 07:09:11;;;;;;;;;;;5.10;99.90;;;;;;5055260;28;20286;-63
2023/01/10 07:11:37;;;;;;;;;;;5.10;99.90;;;;;;5055366;28;19983;-63
2023/01/10 07:14:02;;;;;;;;;;;5.00;99.90;;;;;;5054718;28;20374;-64
2023/01/10 07:16:28;;;;;;;;;;;5.00;99.90;;;;;;5055235;28;20019;-63
2023/01/10 07:18:54;;;;;;;;;;;5.00;99.90;;;;;;5054637;28;20014;-63
2023/01/10 07:21:19;;;;;;;;;;;5.10;99.90;;;;;;5055152;28;19920;-64
2023/01/10 07:23:48;;;;;;;;;;;5.20;99.90;;;;;;5054742;28;20172;-66
2023/01/10 07:26:16;;;;;;;;;;;5.20;99.90;;;;;;5054541;28;19921;-63
2023/01/10 07:28:42;;;;;;;;;;;5.20;99.90;;;;;;5053817;28;19967;-64
2023/01/10 07:31:08;;;;;;;;;;;5.20;99.90;;;;;;5054439;28;19947;-64
2023/01/10 07:33:34;;;;;;;;;;;5.30;99.90;;;;;;5036837;28;19925;-64
2023/01/10 07:36:00;;;;;;;;;;;5.30;99.90;;;;;;5054130;28;19966;-65
2023/01/10 07:38:25;;;;;;;;;;;5.40;99.90;;;;;;5054650;28;19920;-63
2023/01/10 07:40:51;;;;;;;;;;;5.40;99.90;;;;;;5054064;28;20418;-63
2023/01/10 07:43:16;;;;;;;;;;;5.40;99.90;;;;;;5054509;28;19966;-64
2023/01/10 07:45:42;;;;;;;;;;;5.30;99.90;;;;;;5054356;28;19999;-64
2023/01/10 07:48:08;;;;;;;;;;;5.40;99.90;;;;;;5053783;28;19967;-65
2023/01/10 07:50:34;;;;;;;;;;;5.50;99.90;;;;;;5053036;28;19921;-64
2023/01/10 07:53:00;;;;;;;;;;;5.30;99.90;;;;;;5052900;28;20267;-63
2023/01/10 07:55:26;;;;;;;;;;;5.40;99.90;;;;;;5054482;28;19928;-64
2023/01/10 07:57:52;;;;;;;;;;;5.40;99.90;;;;;;5053126;28;19928;-65
2023/01/10 08:00:18;;;;;;;;;;;5.40;99.90;;;;;;5053351;28;19921;-64
2023/01/10 08:02:44;;;;;;;;;;;5.50;99.90;;;;;;5054105;28;20007;-64
2023/01/10 08:05:09;;;;;;;;;;;5.50;99.90;;;;;;5053714;28;19923;-64
2023/01/10 08:07:35;;;;;;;;;;;5.40;99.90;;;;;;5054091;28;19927;-65
2023/01/10 08:10:01;;;;;;;;;;;5.40;99.90;;;;;;5036202;28;19920;-64
2023/01/10 08:12:26;;;;;;;;;;;5.50;99.90;;;;;;5049558;28;20270;-64
2023/01/10 08:14:52;;;;;;;;;;;5.70;99.90;;;;;;5053403;28;20183;-65
2023/01/10 08:17:17;;;;;;;;;;;5.40;99.90;;;;;;5052701;28;20024;-64
2023/01/10 08:19:43;;;;;;;;;;;5.60;99.90;;;;;;5052930;28;19940;-62
2023/01/10 08:22:09;;;;;;;;;;;5.40;99.90;;;;;;5036004;28;19920;-64
2023/01/10 08:24:34;;;;;;;;;;;5.40;99.90;;;;;;5052422;28;20488;-65
2023/01/10 08:27:00;;;;;;;;;;;5.40;99.90;;;;;;5053436;28;19928;-64
2023/01/10 08:29:26;;;;;;;;;;;5.40;99.90;;;;;;5053805;28;20062;-63
2023/01/10 08:31:52;;;;;;;;;;;5.50;99.90;;;;;;5036243;28;19982;-63
2023/01/10 08:34:18;;;;;;;;;;;5.50;99.90;;;;;;5052911;28;19921;-64
2023/01/10 08:36:43;;;;;;;;;;;5.50;99.90;;;;;;5053414;28;20362;-65
2023/01/10 08:39:09;;;;;;;;;;;5.50;99.90;;;;;;5053069;28;19920;-63
2023/01/10 08:41:35;;;;;;;;;;;5.60;99.90;;;;;;5053754;28;19999;-63
2023/01/10 08:44:00;;;;;;;;;;;5.60;99.90;;;;;;5053493;28;19999;-63
2023/01/10 08:46:26;;;;;;;;;;;5.60;99.90;;;;;;5053720;28;20341;-64
2023/01/10 08:48:52;;;;;;;;;;;5.60;99.90;;;;;;5053424;28;20420;-64
2023/01/10 08:51:17;;;;;;;;;;;5.70;99.90;;;;;;5052268;28;19927;-64
2023/01/10 08:53:43;;;;;;;;;;;5.60;99.90;;;;;;5053670;28;19920;-63
2023/01/10 08:56:09;;;;;;;;;;;5.70;99.90;;;;;;5052012;28;20003;-63
2023/01/10 08:58:35;;;;;;;;;;;5.70;99.90;;;;;;5053448;28;19921;-64
2023/01/10 09:01:05;;;;;;;;;;;5.70;99.90;;;;;;5051099;28;19921;-63
2023/01/10 09:03:31;;;;;;;;;;;5.70;99.90;;;;;;5053315;28;20011;-64
2023/01/10 09:05:58;;;;;;;;;;;5.90;99.90;;;;;;5053042;28;20011;-64
2023/01/10 09:08:24;;;;;;;;;;;5.90;99.90;;;;;;5053074;28;19931;-63
2023/01/10 09:10:49;;;;;;;;;;;5.90;99.90;;;;;;5052128;28;19921;-64
2023/01/10 09:13:15;;;;;;;;;;;5.90;99.90;;;;;;5052937;28;19920;-64
2023/01/10 09:15:42;;;;;;;;;;;5.80;99.90;;;;;;5052017;28;19921;-64
2023/01/10 09:18:09;;;;;;;;;;;5.80;99.90;;;;;;5035325;28;20054;-64
2023/01/10 09:20:36;;;;;;;;;;;5.90;99.90;;;;;;5051795;28;20018;-65
2023/01/10 09:23:09;;;;;;;;;;;5.90;99.90;;;;;;5051625;28;19928;-63
2023/01/10 09:25:34;;;;;;;;;;;5.90;99.90;;;;;;5051990;28;20070;-65
2023/01/10 09:28:00;;;;;;;;;;;6.00;99.90;;;;;;5052487;28;20011;-65
2023/01/10 09:30:27;;;;;;;;;;;6.00;99.90;;;;;;5050851;28;19920;-66
2023/01/10 09:32:54;;;;;;;;;;;6.00;99.90;;;;;;5051517;28;20281;-64
2023/01/10 09:35:20;;;;;;;;;;;6.00;99.90;;;;;;5051273;28;20263;-64
2023/01/10 09:37:45;;;;;;;;;;;6.10;99.90;;;;;;5051968;28;19921;-64
2023/01/10 09:40:21;;;;;;;;;;;6.10;99.90;;;;;;5052265;28;20006;-64
2023/01/10 09:42:46;;;;;;;;;;;6.20;99.90;;;;;;5051257;28;19943;-63
2023/01/10 09:45:37;;;;;;;;;;;6.10;99.90;;;;;;5052319;28;20389;-63
2023/01/10 09:48:11;;;;;;;;;;;6.10;99.90;;;;;;5051995;28;19979;-65
2023/01/10 09:50:45;;;;;;;;;;;6.20;99.90;;;;;;5052436;28;20350;-65
2023/01/10 09:53:12;;;;;;;;;;;6.20;99.90;;;;;;5050702;28;19920;-64
2023/01/10 09:55:38;;;;;;;;;;;6.30;99.90;;;;;;5052080;28;20208;-64
2023/01/10 09:58:06;;;;;;;;;;;6.30;99.90;;;;;;5034473;28;20011;-65
2023/01/10 10:00:41;;;;;;;;;;;6.30;99.90;;;;;;5050349;28;20281;-65
2023/01/10 10:03:14;;;;;;;;;;;6.30;99.90;;;;;;5050122;28;19920;-65
2023/01/10 10:05:39;;;;;;;;;;;6.40;99.90;;;;;;5052260;28;19971;-65
2023/01/10 10:08:08;;;;;;;;;;;6.40;99.90;;;;;;5051904;28;20275;-65
2023/01/10 10:10:34;;;;;;;;;;;6.40;99.90;;;;;;5052031;28;19920;-65
2023/01/10 10:13:29;;;;;;;;;;;6.50;99.90;;;;;;5051802;28;20458;-65
2023/01/10 10:16:01;;;;;;;;;;;6.50;99.90;;;;;;5038092;28;19921;-65
2023/01/10 10:18:45;;;;;;;;;;;6.50;99.90;;;;;;5051539;28;19927;-65
2023/01/10 10:21:22;;;;;;;;;;;6.60;99.90;;;;;;5050508;28;19990;-65
2023/01/10 10:23:57;;;;;;;;;;;6.60;99.90;;;;;;5051916;28;19921;-64
2023/01/10 10:26:29;;;;;;;;;;;6.60;99.90;;;;;;5051639;28;20015;-64
2023/01/10 10:29:21;;;;;;;;;;;6.70;99.90;;;;;;5051708;28;20344;-64
2023/01/10 10:31:58;;;;;;;;;;;6.60;99.90;;;;;;5048302;28;20310;-65
2023/01/10 10:34:35;;;;;;;;;;;6.70;99.90;;;;;;5050065;28;19971;-65
2023/01/10 10:37:07;;;;;;;;;;;6.70;99.90;;;;;;5051579;28;19960;-64
2023/01/10 10:39:42;;;;;;;;;;;6.70;99.90;;;;;;5051178;28;19931;-64
2023/01/10 10:42:11;;;;;;;;;;;6.70;99.90;;;;;;5051568;28;20283;-64
2023/01/10 10:44:51;;;;;;;;;;;6.80;99.90;;;;;;5050313;28;19920;-63
2023/01/10 10:47:19;;;;;;;;;;;6.80;99.90;;;;;;5051192;28;19932;-64
2023/01/10 10:49:44;;;;;;;;;;;6.80;99.90;;;;;;5049757;28;19921;-63
2023/01/10 10:52:18;;;;;;;;;;;6.80;99.90;;;;;;5033563;28;19927;-64
2023/01/10 10:54:44;;;;;;;;;;;6.80;99.90;;;;;;5051435;28;19927;-64
2023/01/10 10:57:10;;;;;;;;;;;6.80;99.90;;;;;;5050527;28;19921;-66
2023/01/10 10:59:36;;;;;;;;;;;6.80;99.90;;;;;;5050550;28;19920;-63
2023/01/10 11:02:02;;;;;;;;;;;6.90;99.90;;;;;;5049896;28;20015;-63
2023/01/10 11:04:28;;;;;;;;;;;6.90;99.90;;;;;;5050606;28;19974;-63
2023/01/10 11:06:54;;;;;;;;;;;6.90;99.90;;;;;;5051016;28;19928;-64
2023/01/10 11:09:34;;;;;;;;;;;7.00;99.90;;;;;;5049638;28;19963;-65
2023/01/10 11:12:01;;;;;;;;;;;7.00;99.90;;;;;;5051379;28;19928;-64
2023/01/10 11:14:44;;;;;;;;;;;7.00;99.90;;;;;;5050839;28;20374;-63
2023/01/10 11:17:24;;;;;;;;;;;7.00;99.90;;;;;;5049972;28;19936;-64
2023/01/10 11:19:54;;;;;;;;;;;7.00;99.90;;;;;;5051311;28;19978;-63
2023/01/10 11:22:20;;;;;;;;;;;7.00;99.90;;;;;;5050976;28;19921;-65
2023/01/10 11:24:59;;;;;;;;;;;7.00;99.90;;;;;;5053550;28;19928;-65
2023/01/10 11:27:26;;;;;;;;;;;7.00;99.90;;;;;;5053031;28;20326;-63
2023/01/10 11:29:55;;;;;;;;;;;7.10;99.90;;;;;;5054915;28;19921;-64
2023/01/10 11:32:37;;;;;;;;;;;7.10;99.90;;;;;;5054432;28;19920;-63
2023/01/10 11:35:23;;;;;;;;;;;7.10;99.90;;;;;;5054756;28;20263;-65
2023/01/10 11:38:04;;;;;;;;;;;7.10;99.90;;;;;;5053575;28;19943;-63
2023/01/10 11:40:36;;;;;;;;;;;7.10;99.90;;;;;;5054020;28;19966;-64
2023/01/10 11:43:22;;;;;;;;;;;7.10;99.90;;;;;;5053602;28;20358;-64
2023/01/10 11:45:51;;;;;;;;;;;7.20;99.90;;;;;;5053601;28;19920;-64
2023/01/10 11:48:20;;;;;;;;;;;7.10;99.90;;;;;;5054281;28;20011;-65
2023/01/10 11:50:50;;;;;;;;;;;7.10;99.90;;;;;;5054589;28;19921;-65
2023/01/10 11:53:31;;;;;;;;;;;7.10;99.90;;;;;;5053313;28;19927;-64
2023/01/10 11:55:57;;;;;;;;;;;7.10;99.90;;;;;;5054499;28;19920;-64
2023/01/10 11:58:28;;;;;;;;;;;7.10;99.90;;;;;;5052200;28;20373;-64
2023/01/10 12:00:53;;;;;;;;;;;7.10;99.90;;;;;;5054314;28;19975;-65
2023/01/10 12:03:28;;;;;;;;;;;7.10;99.90;;;;;;5052430;28;19925;-66
2023/01/10 12:05:56;;;;;;;;;;;7.10;99.90;;;;;;5054423;28;19924;-64
2023/01/10 12:08:28;;;;;;;;;;;7.10;99.90;;;;;;5053693;28;19920;-65
2023/01/10 12:11:01;;;;;;;;;;;7.10;99.90;;;;;;5054385;28;19921;-64
2023/01/10 12:13:29;;;;;;;;;;;7.10;99.90;;;;;;5053910;28;19920;-66
2023/01/10 12:16:13;;;;;;;;;;;7.10;99.90;;;;;;5054448;28;19920;-65
2023/01/10 12:18:39;;;;;;;;;;;7.10;99.90;;;;;;5053931;28;20480;-63
2023/01/10 12:21:05;;;;;;;;;;;7.10;99.90;;;;;;5036874;28;20000;-64
2023/01/10 12:23:34;;;;;;;;;;;7.10;99.90;;;;;;5053794;28;19924;-64
2023/01/10 12:26:00;;;;;;;;;;;7.10;99.90;;;;;;5053978;28;20376;-63
2023/01/10 12:28:27;;;;;;;;;;;7.10;99.90;;;;;;5053736;28;19920;-64
2023/01/10 12:30:55;;;;;;;;;;;7.10;99.90;;;;;;5054077;28;19925;-64
2023/01/10 12:33:22;;;;;;;;;;;7.10;99.90;;;;;;5053038;28;20303;-65
2023/01/10 12:35:51;;;;;;;;;;;7.10;99.90;;;;;;5052709;28;19943;-64
2023/01/10 12:44:13;;;;;;;;;;;7.10;99.90;;;;;;5054101;28;19927;-64
2023/01/10 12:46:57;;;;;;;;;;;7.10;99.90;;;;;;5052573;28;20345;-64
2023/01/10 12:49:34;;;;;;;;;;;7.10;99.90;;;;;;5035695;28;19975;-64
2023/01/10 12:52:09;;;;;;;;;;;7.10;99.90;;;;;;5053438;28;19921;-64
2023/01/10 12:54:35;;;;;;;;;;;7.10;99.90;;;;;;5053079;28;20399;-64
2023/01/10 12:57:02;;;;;;;;;;;7.10;99.90;;;;;;5052546;28;19921;-64
2023/01/10 12:59:36;;;;;;;;;;;7.10;99.90;;;;;;5053168;28;20021;-64
2023/01/10 13:02:03;;;;;;;;;;;7.00;99.90;;;;;;5053272;28;19924;-64
2023/01/10 13:04:30;;;;;;;;;;;7.00;99.90;;;;;;5053133;28;20001;-64
2023/01/10 13:06:56;;;;;;;;;;;7.00;99.90;;;;;;5053300;28;20304;-64
2023/01/10 13:09:23;;;;;;;;;;;7.00;99.90;;;;;;5053322;28;20019;-65
2023/01/10 13:11:49;;;;;;;;;;;7.00;99.90;;;;;;5052811;28;20289;-62
2023/01/10 13:14:16;;;;;;;;;;;7.00;99.90;;;;;;5050329;28;19921;-65
2023/01/10 13:16:44;;;;;;;;;;;7.00;99.90;;;;;;5051604;28;20312;-64
2023/01/10 13:19:09;;;;;;;;;;;7.00;99.90;;;;;;5053079;28;20023;-63
2023/01/10 13:21:36;;;;;;;;;;;6.90;99.90;;;;;;5052457;28;20011;-63
2023/01/10 13:24:04;;;;;;;;;;;7.00;99.90;;;;;;5052854;28;19928;-64
2023/01/10 13:26:47;;;;;;;;;;;7.00;99.90;;;;;;5034987;28;20285;-64
2023/01/10 13:29:23;;;;;;;;;;;7.00;99.90;;;;;;5051643;28;19921;-64
2023/01/10 13:31:56;;;;;;;;;;;6.90;99.90;;;;;;5052390;28;19964;-63
2023/01/10 13:34:24;;;;;;;;;;;7.00;99.90;;;;;;5051741;28;20297;-64
2023/01/10 13:36:49;;;;;;;;;;;6.90;99.90;;;;;;5051369;28;19971;-64
2023/01/10 13:39:22;;;;;;;;;;;7.00;99.90;;;;;;5051752;28;19960;-63
2023/01/10 13:45:00;;;;;;;;;;;6.90;99.90;;;;;;5050926;28;19932;-64
2023/01/10 13:47:37;;;;;;;;;;;6.90;99.90;;;;;;5050782;28;19921;-64
2023/01/10 13:50:21;;;;;;;;;;;6.80;99.90;;;;;;5052219;28;20410;-64
2023/01/10 13:52:51;;;;;;;;;;;6.90;99.90;;;;;;5052257;28;19971;-63
2023/01/10 13:55:35;;;;;;;;;;;6.80;99.90;;;;;;5034377;28;20365;-62
2023/01/10 14:04:24;;;;;;;;;;;6.80;99.90;;;;;;5052142;28;19944;-64
2023/01/10 14:06:51;;;;;;;;;;;6.80;99.90;;;;;;5050959;28;19929;-64
2023/01/10 14:09:17;;;;;;;;;;;6.80;99.90;;;;;;5050999;28;19920;-64
2023/01/10 14:11:42;;;;;;;;;;;6.80;99.90;;;;;;5050339;28;20024;-63
2023/01/10 14:14:18;;;;;;;;;;;6.80;99.90;;;;;;5051965;28;19920;-65
2023/01/10 14:16:45;;;;;;;;;;;6.80;99.90;;;;;;5051808;28;19954;-65
2023/01/10 14:19:27;;;;;;;;;;;6.80;99.90;;;;;;5051811;28;19967;-64
2023/01/10 14:21:54;;;;;;;;;;;6.80;99.90;;;;;;5051193;28;20020;-64
2023/01/10 14:24:27;;;;;;;;;;;6.80;99.90;;;;;;5050547;28;19928;-65
2023/01/10 14:26:54;;;;;;;;;;;6.70;99.90;;;;;;5050122;28;19920;-64
2023/01/10 14:29:21;;;;;;;;;;;6.80;99.90;;;;;;5051289;28;20038;-64
2023/01/10 14:31:48;;;;;;;;;;;6.80;99.90;;;;;;5051221;28;19921;-66
2023/01/10 14:34:34;;;;;;;;;;;6.80;99.90;;;;;;5051559;28;20397;-64
2023/01/10 14:37:02;;;;;;;;;;;6.70;99.90;;;;;;5051596;28;19921;-65
2023/01/10 14:39:28;;;;;;;;;;;6.70;99.90;;;;;;5051811;28;19974;-64
2023/01/10 14:41:57;;;;;;;;;;;6.70;99.90;;;;;;5050632;28;19928;-65
2023/01/10 14:44:42;;;;;;;;;;;6.70;99.90;;;;;;5051901;28;19924;-64
2023/01/10 14:47:25;;;;;;;;;;;6.70;99.90;;;;;;5050725;28;19921;-65
2023/01/10 14:49:51;;;;;;;;;;;6.70;99.90;;;;;;5050226;28;19921;-66
2023/01/10 14:52:18;;;;;;;;;;;6.70;99.90;;;;;;5051797;28;19925;-64
2023/01/10 14:54:44;;;;;;;;;;;6.70;99.90;;;;;;5051118;28;19925;-65
2023/01/10 14:57:20;;;;;;;;;;;6.70;99.90;;;;;;5050431;28;20297;-63
2023/01/10 14:59:47;;;;;;;;;;;6.70;99.90;;;;;;5053532;28;19974;-65
2023/01/10 15:02:12;;;;;;;;;;;6.70;99.90;;;;;;5053974;28;20015;-64
2023/01/10 15:04:46;;;;;;;;;;;6.70;99.90;;;;;;5055972;28;20067;-64